Time;durP1;ratioP1;P1;durP2;ratioP2;P2;SDS_P1;SDS_P2;PMS_P1;PMS_P2;Temp;Humidity;BMP_temperature;BMP_pressure;BME280_temperature;BME280_humidity;BME280_pressure;Samples;Min_cycle;Max_cycle;Signal;HPM_P1;HPM_P2
2021/12/11 00:01:26;;;;;;;;;;;;;;;2.10;99.26;99270.92;1763373;79;20177;-77
2021/12/11 00:03:57;;;;;;;;;;;;;;;2.15;99.65;99277.06;1764578;81;20235;-76
2021/12/11 00:06:29;;;;;;;;;;;;;;;2.25;99.78;99273.23;1764189;80;21988;-77
2021/12/11 00:08:57;;;;;;;;;;;;;;;2.30;99.20;99277.58;1768171;80;20236;-79
2021/12/11 00:11:26;;;;;;;;;;;;;;;2.33;98.58;99277.33;1767299;79;20192;-77
2021/12/11 00:13:54;;;;;;;;;;;;;;;2.46;98.04;99277.17;1762872;80;20148;-78
2021/12/11 00:16:22;;;;;;;;;;;;;;;2.45;97.22;99272.42;1760599;81;20463;-78
2021/12/11 00:18:52;;;;;;;;;;;;;;;2.38;97.69;99280.41;1764788;81;20726;-78
2021/12/11 00:21:18;;;;;;;;;;;;;;;2.40;97.91;99282.88;1766114;80;20120;-76
2021/12/11 00:23:52;;;;;;;;;;;;;;;2.43;97.88;99284.75;1765677;80;20151;-77
2021/12/11 00:26:26;;;;;;;;;;;;;;;2.56;97.62;99284.56;1764022;80;21011;-76
2021/12/11 00:28:52;;;;;;;;;;;;;;;2.41;97.45;99285.37;1761733;81;20161;-76
2021/12/11 00:31:18;;;;;;;;;;;;;;;2.46;97.98;99298.84;1765131;80;22540;-76
2021/12/11 00:33:43;;;;;;;;;;;;;;;2.50;98.14;99295.04;1801244;78;20120;-78
2021/12/11 00:36:11;;;;;;;;;;;;;;;2.48;97.95;99293.02;1805681;78;20141;-76
2021/12/11 00:38:36;;;;;;;;;;;;;;;2.62;97.79;99282.76;1802510;78;20829;-76
2021/12/11 00:41:04;;;;;;;;;;;;;;;2.41;98.22;99283.22;1803021;78;20116;-76
2021/12/11 00:43:33;;;;;;;;;;;;;;;2.40;98.44;99293.30;1805494;79;21142;-76
2021/12/11 00:45:58;;;;;;;;;;;;;;;2.36;98.76;99301.02;1799636;79;20129;-75
2021/12/11 00:48:24;;;;;;;;;;;;;;;2.12;99.65;99302.86;1800763;79;20326;-76
2021/12/11 00:50:54;;;;;;;;;;;;;;;2.29;99.27;99307.20;1803790;79;21207;-76
2021/12/11 00:53:25;;;;;;;;;;;;;;;2.34;98.96;99307.65;1801307;79;20139;-76
2021/12/11 00:55:54;;;;;;;;;;;;;;;2.43;98.50;99311.30;1800505;79;21281;-76
2021/12/11 00:58:22;;;;;;;;;;;;;;;2.51;97.81;99311.49;1809925;78;20288;-79
2021/12/11 01:01:04;;;;;;;;;;;;;;;2.51;97.55;99314.91;1807245;78;20207;-76
2021/12/11 01:03:35;;;;;;;;;;;;;;;2.64;97.53;99302.19;1806867;78;20189;-77
2021/12/11 01:06:03;;;;;;;;;;;;;;;2.56;97.74;99313.72;1800142;79;20335;-78
2021/12/11 01:08:32;;;;;;;;;;;;;;;2.49;97.86;99316.02;1806947;78;20926;-79
2021/12/11 01:11:13;;;;;;;;;;;;;;;2.57;97.82;99324.52;1801138;78;20204;-76
2021/12/11 01:13:45;;;;;;;;;;;;;;;2.59;97.68;99326.50;1784607;78;21163;-77
2021/12/11 01:16:14;;;;;;;;;;;;;;;2.63;97.33;99326.12;1814114;78;20756;-76
2021/12/11 01:18:42;;;;;;;;;;;;;;;2.72;96.98;99316.73;1808384;78;20108;-77
2021/12/11 01:26:40;;;;;;;;;;;;;;;2.19;99.38;99336.23;1797313;78;20426;-77
2021/12/11 01:29:05;;;;;;;;;;;;;;;2.30;99.29;99327.08;1802114;78;20172;-77
2021/12/11 01:31:31;;;;;;;;;;;;;;;2.44;98.62;99324.20;1801393;78;20136;-77
2021/12/11 01:33:57;;;;;;;;;;;;;;;2.50;98.41;99330.22;1814787;77;21187;-76
2021/12/11 01:36:22;;;;;;;;;;;;;;;2.52;98.24;99328.80;1802872;77;20129;-79
2021/12/11 01:38:53;;;;;;;;;;;;;;;2.55;98.11;99332.45;1816022;77;20478;-77
2021/12/11 01:41:19;;;;;;;;;;;;;;;2.55;98.10;99338.97;1818730;77;20182;-77
2021/12/11 01:43:47;;;;;;;;;;;;;;;2.62;98.06;99341.89;1811842;77;20475;-77
2021/12/11 01:46:13;;;;;;;;;;;;;;;2.69;97.87;99346.97;1795956;78;20591;-76
2021/12/11 01:48:43;;;;;;;;;;;;;;;2.72;97.60;99354.54;1802408;78;20109;-79
2021/12/11 01:51:18;;;;;;;;;;;;;;;2.64;97.44;99358.22;1814442;78;20164;-77
2021/12/11 01:53:47;;;;;;;;;;;;;;;2.54;97.93;99356.03;1812111;77;20166;-77
2021/12/11 01:56:19;;;;;;;;;;;;;;;2.46;98.12;99356.65;1811586;78;20491;-76
2021/12/11 01:58:49;;;;;;;;;;;;;;;2.49;98.21;99361.13;1810076;78;20730;-76
2021/12/11 02:01:21;;;;;;;;;;;;;;;2.39;98.71;99360.20;1811283;78;20144;-77
2021/12/11 02:03:49;;;;;;;;;;;;;;;2.19;99.92;99347.95;1808259;78;20494;-77
2021/12/11 02:06:18;;;;;;;;;;;;;;;2.03;100.00;99349.17;1811740;78;20724;-79
2021/12/11 02:08:44;;;;;;;;;;;;;;;1.96;100.00;99354.53;1805115;78;21165;-79
2021/12/11 02:11:14;;;;;;;;;;;;;;;2.02;100.00;99355.34;1814464;78;21159;-79
2021/12/11 02:13:45;;;;;;;;;;;;;;;2.09;100.00;99356.50;1802458;78;20477;-77
2021/12/11 02:16:16;;;;;;;;;;;;;;;2.20;100.00;99360.03;1806018;78;20085;-76
2021/12/11 02:18:45;;;;;;;;;;;;;;;2.30;100.00;99366.15;1809647;78;21316;-76
2021/12/11 02:21:12;;;;;;;;;;;;;;;2.34;99.69;99371.00;1808102;78;20446;-79
2021/12/11 02:23:38;;;;;;;;;;;;;;;2.39;98.94;99381.05;1809759;78;21105;-79
2021/12/11 02:26:08;;;;;;;;;;;;;;;2.42;98.24;99379.50;1810774;78;20239;-78
2021/12/11 02:28:46;;;;;;;;;;;;;;;2.17;98.22;99385.02;1810977;78;20225;-79
2021/12/11 02:31:27;;;;;;;;;;;;;;;1.95;98.85;99390.61;1803854;78;20173;-78
2021/12/11 02:34:07;;;;;;;;;;;;;;;1.71;100.00;99390.27;1809561;78;20596;-78
2021/12/11 02:36:32;;;;;;;;;;;;;;;1.96;100.00;99388.38;1813160;77;20156;-77
2021/12/11 02:39:20;;;;;;;;;;;;;;;1.96;100.00;99388.38;1804983;78;20813;-78
2021/12/11 02:41:49;;;;;;;;;;;;;;;2.06;100.00;99399.70;1806170;77;20478;-76
2021/12/11 02:44:31;;;;;;;;;;;;;;;1.95;100.00;99399.24;1818066;78;20194;-76
2021/12/11 02:47:09;;;;;;;;;;;;;;;1.82;100.00;99410.72;1806815;78;20467;-76
2021/12/11 02:49:38;;;;;;;;;;;;;;;1.92;100.00;99422.09;1802936;78;21087;-77
2021/12/11 02:52:13;;;;;;;;;;;;;;;2.04;100.00;99428.95;1810862;78;20121;-77
2021/12/11 02:55:00;;;;;;;;;;;;;;;1.99;100.00;99431.10;1812495;78;20156;-77
2021/12/11 02:57:38;;;;;;;;;;;;;;;2.01;100.00;99434.41;1811285;77;20148;-77
2021/12/11 03:00:12;;;;;;;;;;;;;;;1.85;100.00;99436.06;1815611;78;20187;-76
2021/12/11 03:02:43;;;;;;;;;;;;;;;1.75;100.00;99433.32;1812268;78;21093;-77
2021/12/11 03:05:11;;;;;;;;;;;;;;;1.74;100.00;99434.73;1811896;78;20583;-77
2021/12/11 03:07:38;;;;;;;;;;;;;;;1.68;100.00;99441.27;1815587;78;20197;-78
2021/12/11 03:10:12;;;;;;;;;;;;;;;1.62;100.00;99445.63;1813138;78;20111;-78
2021/12/11 03:12:38;;;;;;;;;;;;;;;1.65;100.00;99445.40;1807169;78;20241;-76
2021/12/11 03:15:05;;;;;;;;;;;;;;;1.68;100.00;99448.22;1805107;78;21199;-77
2021/12/11 03:17:31;;;;;;;;;;;;;;;1.54;100.00;99457.07;1816353;78;20183;-77
2021/12/11 03:19:56;;;;;;;;;;;;;;;1.48;100.00;99465.36;1810397;78;20155;-78
2021/12/11 03:22:27;;;;;;;;;;;;;;;1.60;100.00;99469.62;1803321;78;20469;-78
2021/12/11 03:24:53;;;;;;;;;;;;;;;1.74;100.00;99472.03;1804123;78;20125;-78
2021/12/11 03:27:19;;;;;;;;;;;;;;;1.86;100.00;99478.54;1806545;78;21205;-76
2021/12/11 03:29:45;;;;;;;;;;;;;;;1.88;100.00;99472.73;1807243;78;20105;-76
2021/12/11 03:32:10;;;;;;;;;;;;;;;1.86;100.00;99472.03;1810137;78;20226;-79
2021/12/11 03:34:36;;;;;;;;;;;;;;;1.72;100.00;99462.19;1799255;78;20915;-77
2021/12/11 03:37:03;;;;;;;;;;;;;;;1.52;100.00;99464.17;1804818;78;20159;-76
2021/12/11 03:39:32;;;;;;;;;;;;;;;1.54;100.00;99456.62;1797615;79;21238;-76
2021/12/11 03:41:59;;;;;;;;;;;;;;;1.50;100.00;99469.97;1805955;78;20195;-76
2021/12/11 03:44:31;;;;;;;;;;;;;;;1.51;100.00;99457.30;1806018;78;20146;-77
2021/12/11 03:46:53;;;;;;;;;;;;;;;1.47;100.00;99460.61;1796769;78;20165;-83
2021/12/11 03:49:19;;;;;;;;;;;;;;;1.47;100.00;99455.89;1762563;79;20617;-78
2021/12/11 03:51:46;;;;;;;;;;;;;;;1.55;100.00;99449.63;1765560;79;21165;-80
2021/12/11 03:54:14;;;;;;;;;;;;;;;1.60;100.00;99447.50;1788277;79;20121;-77
2021/12/11 03:56:40;;;;;;;;;;;;;;;1.55;100.00;99452.23;1801898;78;21004;-79
2021/12/11 03:59:09;;;;;;;;;;;;;;;1.58;100.00;99448.09;1800098;78;20707;-81
2021/12/11 04:01:35;;;;;;;;;;;;;;;1.58;100.00;99452.82;1796207;78;20209;-81
2021/12/11 04:04:05;;;;;;;;;;;;;;;1.68;100.00;99456.88;1801346;78;21075;-78
2021/12/11 04:06:30;;;;;;;;;;;;;;;1.80;100.00;99460.30;1794215;79;20190;-81
2021/12/11 04:08:58;;;;;;;;;;;;;;;1.90;100.00;99458.66;1804390;78;20167;-77
2021/12/11 04:11:26;;;;;;;;;;;;;;;1.90;100.00;99463.05;1797765;78;20248;-77
2021/12/11 04:13:53;;;;;;;;;;;;;;;1.89;100.00;99469.20;1772342;79;20204;-81
2021/12/11 04:16:21;;;;;;;;;;;;;;;1.84;100.00;99478.66;1782568;78;21060;-78
2021/12/11 04:18:46;;;;;;;;;;;;;;;1.56;100.00;99474.72;1805805;78;20121;-79
2021/12/11 04:21:12;;;;;;;;;;;;;;;1.65;100.00;99464.91;1804532;78;21086;-78
2021/12/11 04:23:38;;;;;;;;;;;;;;;1.61;100.00;99459.58;1804808;78;20204;-80
2021/12/11 04:26:03;;;;;;;;;;;;;;;1.69;100.00;99471.53;1800528;78;20552;-78
2021/12/11 04:28:30;;;;;;;;;;;;;;;1.82;100.00;99470.59;1795319;79;21803;-80
2021/12/11 04:31:03;;;;;;;;;;;;;;;1.93;100.00;99477.14;1796371;79;20158;-79
2021/12/11 04:33:26;;;;;;;;;;;;;;;1.88;100.00;99484.45;1787713;77;20537;-79
2021/12/11 04:35:51;;;;;;;;;;;;;;;1.58;100.00;99483.23;1822547;77;20181;-80
2021/12/11 04:38:17;;;;;;;;;;;;;;;1.54;100.00;99488.30;1811625;77;20148;-80
2021/12/11 04:40:45;;;;;;;;;;;;;;;1.43;100.00;99495.14;1818906;77;21133;-79
2021/12/11 04:43:15;;;;;;;;;;;;;;;1.51;100.00;99489.82;1814603;77;20134;-79
2021/12/11 04:45:45;;;;;;;;;;;;;;;1.38;100.00;99495.97;1818286;77;20447;-79
2021/12/11 04:48:28;;;;;;;;;;;;;;;1.33;100.00;99501.95;1823797;77;20175;-78
2021/12/11 04:50:56;;;;;;;;;;;;;;;1.33;100.00;99503.73;1815273;77;20138;-80
2021/12/11 04:53:38;;;;;;;;;;;;;;;1.21;100.00;99502.86;1827002;77;20129;-78
2021/12/11 04:56:32;;;;;;;;;;;;;;;1.18;100.00;99503.93;1816639;77;20166;-78
2021/12/11 05:01:11;;;;;;;;;;;;;;;1.58;100.00;99517.05;1817713;77;20131;-78
2021/12/11 05:13:16;;;;;;;;;;;;;;;1.24;100.00;99528.64;1812601;77;20140;-78
2021/12/11 05:15:42;;;;;;;;;;;;;;;1.21;100.00;99530.16;1812186;77;20184;-78
2021/12/11 05:18:11;;;;;;;;;;;;;;;1.23;100.00;99532.20;1809340;77;21007;-78
2021/12/11 05:20:39;;;;;;;;;;;;;;;1.34;100.00;99537.44;1824796;77;20163;-78
2021/12/11 05:23:04;;;;;;;;;;;;;;;1.46;100.00;99536.17;1823889;77;20170;-77
2021/12/11 05:25:30;;;;;;;;;;;;;;;1.54;100.00;99544.23;1818069;77;20429;-78
2021/12/11 05:27:56;;;;;;;;;;;;;;;1.64;100.00;99545.23;1822194;77;20154;-78
2021/12/11 05:30:25;;;;;;;;;;;;;;;1.72;100.00;99542.05;1824898;77;21904;-78
2021/12/11 05:32:50;;;;;;;;;;;;;;;1.73;100.00;99544.55;1810180;78;20144;-77
2021/12/11 05:35:17;;;;;;;;;;;;;;;1.70;100.00;99546.08;1812910;78;20139;-79
2021/12/11 05:37:43;;;;;;;;;;;;;;;1.72;100.00;99551.98;1808851;78;20116;-80
2021/12/11 05:40:10;;;;;;;;;;;;;;;1.72;100.00;99549.86;1807289;78;20479;-78
2021/12/11 05:42:36;;;;;;;;;;;;;;;1.82;100.00;99553.90;1811873;78;21322;-78
2021/12/11 05:45:03;;;;;;;;;;;;;;;1.74;100.00;99555.32;1802655;78;20127;-78
2021/12/11 05:47:29;;;;;;;;;;;;;;;1.80;100.00;99554.02;1814136;78;20115;-78
2021/12/11 05:49:57;;;;;;;;;;;;;;;1.94;100.00;99552.98;1816832;78;21124;-78
2021/12/11 05:52:22;;;;;;;;;;;;;;;2.09;100.00;99557.52;1810737;78;20160;-78
2021/12/11 05:54:47;;;;;;;;;;;;;;;2.17;100.00;99562.14;1810435;78;22153;-80
2021/12/11 05:57:14;;;;;;;;;;;;;;;1.97;100.00;99568.38;1811198;78;20180;-78
2021/12/11 05:59:41;;;;;;;;;;;;;;;2.15;100.00;99569.59;1809378;78;20135;-77
2021/12/11 06:02:19;;;;;;;;;;;;;;;2.14;100.00;99578.38;1807012;78;20766;-78
2021/12/11 06:04:47;;;;;;;;;;;;;;;1.96;100.00;99580.58;1806216;77;20484;-78
2021/12/11 06:07:13;;;;;;;;;;;;;;;1.97;100.00;99584.00;1810432;78;21081;-79
2021/12/11 06:09:42;;;;;;;;;;;;;;;2.12;100.00;99589.36;1811198;78;20168;-77
2021/12/11 06:12:10;;;;;;;;;;;;;;;2.10;99.82;99594.34;1807340;78;20465;-78
2021/12/11 06:14:36;;;;;;;;;;;;;;;2.14;99.83;99591.39;1808875;78;20208;-78
2021/12/11 06:17:03;;;;;;;;;;;;;;;2.27;99.87;99595.64;1816848;78;20215;-78
2021/12/11 06:19:28;;;;;;;;;;;;;;;2.32;98.48;99596.97;1816630;78;20673;-80
2021/12/11 06:21:55;;;;;;;;;;;;;;;2.14;98.66;99599.21;1812493;78;20275;-77
2021/12/11 06:24:20;;;;;;;;;;;;;;;2.15;99.02;99604.75;1800139;78;20199;-77
2021/12/11 06:26:46;;;;;;;;;;;;;;;2.11;99.28;99606.41;1804019;78;20112;-79
2021/12/11 06:29:11;;;;;;;;;;;;;;;2.03;99.73;99608.77;1808579;78;20460;-78
2021/12/11 06:31:37;;;;;;;;;;;;;;;1.94;100.00;99603.76;1811181;78;21169;-78
2021/12/11 06:34:03;;;;;;;;;;;;;;;2.12;100.00;99601.08;1818202;78;20219;-79
2021/12/11 06:36:29;;;;;;;;;;;;;;;2.24;99.96;99605.03;1811942;78;20437;-78
2021/12/11 06:38:57;;;;;;;;;;;;;;;2.18;99.23;99609.40;1812952;78;20137;-78
2021/12/11 06:41:25;;;;;;;;;;;;;;;2.25;99.24;99612.73;1804884;78;20189;-77
2021/12/11 06:43:51;;;;;;;;;;;;;;;2.15;99.09;99611.27;1804809;78;21963;-78
2021/12/11 06:46:17;;;;;;;;;;;;;;;1.91;100.00;99609.19;1809720;78;20145;-78
2021/12/11 06:48:43;;;;;;;;;;;;;;;1.89;100.00;99612.39;1810198;78;20147;-78
2021/12/11 06:51:08;;;;;;;;;;;;;;;1.97;100.00;99602.23;1798150;78;20159;-77
2021/12/11 06:53:40;;;;;;;;;;;;;;;2.11;100.00;99615.52;1806725;78;20140;-78
2021/12/11 06:56:07;;;;;;;;;;;;;;;2.08;100.00;99617.90;1809526;78;21167;-78
2021/12/11 06:58:33;;;;;;;;;;;;;;;1.96;100.00;99626.63;1813047;78;20114;-78
2021/12/11 07:00:59;;;;;;;;;;;;;;;1.99;100.00;99619.89;1806965;78;20137;-78
2021/12/11 07:03:25;;;;;;;;;;;;;;;2.15;100.00;99624.29;1804380;79;20110;-78
2021/12/11 07:05:50;;;;;;;;;;;;;;;2.25;100.00;99622.30;1810013;78;20297;-78
2021/12/11 07:08:17;;;;;;;;;;;;;;;2.22;99.84;99627.73;1812674;78;21045;-78
2021/12/11 07:10:44;;;;;;;;;;;;;;;2.08;100.00;99630.92;1806904;78;20610;-78
2021/12/11 07:13:09;;;;;;;;;;;;;;;2.14;100.00;99633.07;1807264;78;20204;-78
2021/12/11 07:15:35;;;;;;;;;;;;;;;2.17;100.00;99638.50;1811881;78;20160;-78
2021/12/11 07:18:01;;;;;;;;;;;;;;;2.15;100.00;99646.91;1809266;78;20262;-77
2021/12/11 07:20:26;;;;;;;;;;;;;;;2.19;100.00;99648.36;1814726;78;21279;-77
2021/12/11 07:22:54;;;;;;;;;;;;;;;2.22;99.74;99645.97;1804886;79;20135;-80
2021/12/11 07:25:25;;;;;;;;;;;;;;;2.28;99.85;99652.02;1806192;78;20133;-78
2021/12/11 07:27:50;;;;;;;;;;;;;;;2.30;99.65;99654.88;1804713;78;20164;-78
2021/12/11 07:30:17;;;;;;;;;;;;;;;2.36;99.19;99652.27;1804952;78;20137;-78
2021/12/11 07:32:42;;;;;;;;;;;;;;;2.40;99.23;99660.22;1812390;78;21094;-78
2021/12/11 07:35:08;;;;;;;;;;;;;;;2.33;99.14;99666.37;1820396;78;20243;-80
2021/12/11 07:37:34;;;;;;;;;;;;;;;2.46;99.27;99668.06;1821812;77;20270;-78
2021/12/11 07:39:59;;;;;;;;;;;;;;;2.38;98.27;99669.94;1831711;78;20446;-78
2021/12/11 07:42:25;;;;;;;;;;;;;;;2.33;98.64;99670.73;1813078;77;20151;-80
2021/12/11 07:44:51;;;;;;;;;;;;;;;2.31;98.78;99670.03;1808217;78;21825;-78
2021/12/11 07:47:16;;;;;;;;;;;;;;;2.43;98.67;99682.14;1809789;77;20151;-78
2021/12/11 07:49:42;;;;;;;;;;;;;;;2.51;98.71;99678.95;1803199;78;20193;-78
2021/12/11 07:52:08;;;;;;;;;;;;;;;2.32;98.68;99672.52;1820407;78;21078;-78
2021/12/11 07:54:33;;;;;;;;;;;;;;;2.41;98.93;99679.28;1815192;78;20211;-78
2021/12/11 07:56:59;;;;;;;;;;;;;;;2.43;98.90;99684.75;1818079;77;21117;-78
2021/12/11 07:59:24;;;;;;;;;;;;;;;2.63;100.00;99692.84;1807801;78;20604;-78
2021/12/11 08:01:52;;;;;;;;;;;;;;;2.70;99.11;99694.02;1808516;78;20126;-77
2021/12/11 08:04:17;;;;;;;;;;;;;;;2.75;98.29;99698.89;1814780;78;20168;-76
2021/12/11 08:06:43;;;;;;;;;;;;;;;2.66;98.00;99709.08;1799359;78;20212;-77
2021/12/11 08:09:12;;;;;;;;;;;;;;;2.71;98.07;99709.21;1814302;78;21190;-78
2021/12/11 08:11:38;;;;;;;;;;;;;;;2.84;98.29;99710.77;1808693;78;20150;-77
2021/12/11 08:14:03;;;;;;;;;;;;;;;2.93;97.87;99712.31;1808286;78;20253;-77
2021/12/11 08:16:35;;;;;;;;;;;;;;;2.76;96.92;99721.41;1803234;78;20174;-77
2021/12/11 08:19:00;;;;;;;;;;;;;;;2.79;97.43;99716.79;1807719;77;20125;-77
2021/12/11 08:21:26;;;;;;;;;;;;;;;2.85;96.83;99716.33;1806273;78;21060;-78
2021/12/11 08:23:54;;;;;;;;;;;;;;;2.90;97.23;99722.98;1800999;78;20258;-76
2021/12/11 08:26:20;;;;;;;;;;;;;;;3.07;96.49;99732.94;1806123;78;20505;-77
2021/12/11 08:28:46;;;;;;;;;;;;;;;3.14;95.60;99736.74;1807262;78;20168;-78
2021/12/11 08:31:14;;;;;;;;;;;;;;;3.04;95.24;99737.08;1806646;78;20520;-77
2021/12/11 08:33:39;;;;;;;;;;;;;;;2.77;96.51;99738.25;1809476;78;20147;-78
2021/12/11 08:36:05;;;;;;;;;;;;;;;2.73;97.40;99742.02;1763253;78;20121;-78
2021/12/11 08:38:31;;;;;;;;;;;;;;;3.07;96.94;99747.28;1766139;81;20203;-77
2021/12/11 08:40:57;;;;;;;;;;;;;;;3.14;97.15;99749.78;1765016;79;20573;-78
2021/12/11 08:43:23;;;;;;;;;;;;;;;3.24;96.00;99760.33;1763443;79;20672;-79
2021/12/11 08:46:09;;;;;;;;;;;;;;;3.19;95.85;99765.91;1737292;81;21078;-78
2021/12/11 08:48:31;;;;;;;;;;;;;;;3.17;96.69;99763.90;1764723;80;20140;-80
2021/12/11 08:51:01;;;;;;;;;;;;;;;2.93;96.54;99772.30;1767454;81;20152;-79
2021/12/11 08:53:27;;;;;;;;;;;;;;;2.84;97.31;99774.66;1762217;81;20589;-78
2021/12/11 08:55:54;;;;;;;;;;;;;;;2.84;97.52;99775.96;1764703;81;20177;-77
2021/12/11 08:58:19;;;;;;;;;;;;;;;2.88;97.98;99776.06;1740394;80;21179;-78
2021/12/11 09:00:58;;;;;;;;;;;;;;;3.01;97.69;99788.18;1765057;79;20129;-79
2021/12/11 09:03:33;;;;;;;;;;;;;;;2.95;97.08;99780.37;1765667;80;20513;-78
2021/12/11 09:06:14;;;;;;;;;;;;;;;3.02;97.31;99787.25;1764355;80;20205;-79
2021/12/11 09:08:55;;;;;;;;;;;;;;;2.85;97.74;99784.12;1764379;80;20238;-76
2021/12/11 09:11:26;;;;;;;;;;;;;;;2.84;98.28;99794.67;1765991;79;22134;-77
2021/12/11 09:14:01;;;;;;;;;;;;;;;2.65;98.74;99793.44;1765396;80;20132;-76
2021/12/11 09:16:31;;;;;;;;;;;;;;;2.80;99.03;99794.08;1764153;79;20243;-80
2021/12/11 09:19:00;;;;;;;;;;;;;;;2.92;98.35;99796.70;1764980;81;20856;-78
2021/12/11 09:21:32;;;;;;;;;;;;;;;3.06;98.28;99804.30;1762073;79;20173;-80
2021/12/11 09:24:18;;;;;;;;;;;;;;;3.28;97.65;99804.83;1757906;79;22296;-76
2021/12/11 09:26:53;;;;;;;;;;;;;;;3.32;96.74;99805.41;1758414;80;20199;-79
2021/12/11 09:29:28;;;;;;;;;;;;;;;3.29;96.83;99814.78;1757483;81;20165;-77
2021/12/11 09:32:16;;;;;;;;;;;;;;;3.52;96.23;99820.84;1763817;80;20180;-76
2021/12/11 09:34:51;;;;;;;;;;;;;;;3.62;95.37;99828.78;1763688;78;20677;-77
2021/12/11 09:37:17;;;;;;;;;;;;;;;3.59;95.67;99823.34;1770177;79;21384;-78
2021/12/11 09:39:57;;;;;;;;;;;;;;;3.69;95.21;99826.88;1760969;79;20242;-77
2021/12/11 09:42:23;;;;;;;;;;;;;;;3.78;94.75;99834.48;1771799;78;20180;-77
2021/12/11 09:44:52;;;;;;;;;;;;;;;3.70;93.80;99838.17;1763363;78;20197;-78
2021/12/11 09:47:28;;;;;;;;;;;;;;;3.73;94.27;99843.16;1761506;78;20446;-78
2021/12/11 09:49:58;;;;;;;;;;;;;;;3.75;94.07;99851.70;1775797;78;20139;-78
2021/12/11 09:52:25;;;;;;;;;;;;;;;3.52;94.44;99852.98;1759853;78;20084;-77
2021/12/11 09:54:56;;;;;;;;;;;;;;;3.35;94.98;99854.28;1765693;78;20209;-76
2021/12/11 09:57:23;;;;;;;;;;;;;;;3.15;95.89;99860.19;1765331;78;20219;-77
2021/12/11 09:59:50;;;;;;;;;;;;;;;3.18;96.75;99869.91;1764491;78;20917;-76
2021/12/11 10:02:19;;;;;;;;;;;;;;;3.14;96.53;99869.80;1759801;78;21023;-78
2021/12/11 10:04:58;;;;;;;;;;;;;;;3.10;97.42;99865.75;1774524;78;20121;-77
2021/12/11 10:07:26;;;;;;;;;;;;;;;3.16;97.08;99863.98;1769513;78;20231;-77
2021/12/11 10:09:52;;;;;;;;;;;;;;;3.34;97.54;99868.75;1768056;78;20108;-77
2021/12/11 10:12:21;;;;;;;;;;;;;;;3.45;96.67;99874.45;1778441;78;20142;-78
2021/12/11 10:14:50;;;;;;;;;;;;;;;3.30;96.73;99881.69;1788663;78;21233;-78
2021/12/11 10:17:20;;;;;;;;;;;;;;;3.29;96.68;99880.84;1772041;78;20180;-81
2021/12/11 10:19:46;;;;;;;;;;;;;;;3.36;96.90;99882.53;1763114;79;20183;-78
2021/12/11 10:22:27;;;;;;;;;;;;;;;3.34;96.85;99887.02;1791867;78;20718;-78
2021/12/11 10:24:52;;;;;;;;;;;;;;;3.23;97.03;99886.06;1760582;78;20163;-78
2021/12/11 10:27:21;;;;;;;;;;;;;;;3.11;97.63;99880.47;1770527;78;21130;-79
2021/12/11 10:29:46;;;;;;;;;;;;;;;3.30;97.35;99881.69;1776470;78;20196;-79
2021/12/11 10:32:15;;;;;;;;;;;;;;;3.30;97.15;99890.34;1784422;78;20140;-77
2021/12/11 10:34:42;;;;;;;;;;;;;;;3.13;97.16;99899.44;1776060;78;20254;-77
2021/12/11 10:37:13;;;;;;;;;;;;;;;3.05;97.62;99896.58;1796732;77;20929;-78
2021/12/11 10:39:41;;;;;;;;;;;;;;;3.07;97.99;99901.20;1793716;78;23166;-79
2021/12/11 10:42:07;;;;;;;;;;;;;;;3.12;97.73;99896.45;1789149;78;20120;-80
2021/12/11 10:44:35;;;;;;;;;;;;;;;3.02;98.10;99896.80;1787891;78;20190;-79
2021/12/11 10:47:10;;;;;;;;;;;;;;;3.04;97.80;99896.20;1802626;78;21308;-77
2021/12/11 10:49:37;;;;;;;;;;;;;;;3.08;98.09;99895.05;1779145;79;38147;-77
2021/12/11 10:52:09;;;;;;;;;;;;;;;3.13;98.28;99894.70;1796777;79;21137;-80
2021/12/11 10:54:34;;;;;;;;;;;;;;;3.21;97.95;99895.77;1789506;78;20153;-77
2021/12/11 10:57:00;;;;;;;;;;;;;;;3.28;97.50;99897.92;1770941;78;20136;-77
2021/12/11 10:59:28;;;;;;;;;;;;;;;3.31;97.11;99904.22;1796219;77;20132;-77
2021/12/11 11:02:04;;;;;;;;;;;;;;;3.38;97.09;99910.64;1780879;79;20170;-79
2021/12/11 11:04:36;;;;;;;;;;;;;;;3.47;96.72;99917.78;1782040;79;21157;-77
2021/12/11 11:07:02;;;;;;;;;;;;;;;3.49;96.43;99915.05;1757611;79;20472;-77
2021/12/11 11:09:29;;;;;;;;;;;;;;;3.44;95.93;99914.09;1806403;78;20140;-77
2021/12/11 11:11:58;;;;;;;;;;;;;;;3.50;96.70;99909.72;1807301;77;20180;-77
2021/12/11 11:14:23;;;;;;;;;;;;;;;3.53;96.51;99913.89;1785360;79;20201;-77
2021/12/11 11:16:52;;;;;;;;;;;;;;;3.63;96.08;99921.84;1805441;78;21162;-78
2021/12/11 11:19:20;;;;;;;;;;;;;;;3.73;95.51;99914.97;1807522;78;20512;-77
2021/12/11 11:21:47;;;;;;;;;;;;;;;3.63;95.60;99916.61;1799915;78;20624;-77
2021/12/11 11:24:12;;;;;;;;;;;;;;;3.73;95.96;99927.55;1800099;78;20190;-80
2021/12/11 11:26:40;;;;;;;;;;;;;;;3.65;95.74;99930.38;1792516;78;20822;-79
2021/12/11 11:29:09;;;;;;;;;;;;;;;3.83;95.37;99936.80;1794110;79;21991;-79
2021/12/11 11:31:37;;;;;;;;;;;;;;;3.95;94.94;99937.16;1797391;78;20154;-79
2021/12/11 11:34:04;;;;;;;;;;;;;;;3.89;94.56;99942.86;1794418;79;20576;-78
2021/12/11 11:36:30;;;;;;;;;;;;;;;3.94;94.21;99943.33;1796154;79;20195;-80
2021/12/11 11:38:58;;;;;;;;;;;;;;;4.02;94.24;99945.34;1799454;79;20209;-79
2021/12/11 11:41:30;;;;;;;;;;;;;;;4.07;94.04;99952.38;1795700;79;21973;-78
2021/12/11 11:43:56;;;;;;;;;;;;;;;4.11;93.91;99954.27;1792559;79;20730;-79
2021/12/11 11:46:25;;;;;;;;;;;;;;;4.08;94.27;99958.42;1797066;79;20315;-78
2021/12/11 11:48:53;;;;;;;;;;;;;;;4.11;93.85;99966.02;1790078;79;20207;-77
2021/12/11 11:51:26;;;;;;;;;;;;;;;4.15;93.44;99972.69;1791118;79;20195;-78
2021/12/11 11:53:51;;;;;;;;;;;;;;;4.04;93.75;99975.28;1793534;79;21939;-79
2021/12/11 11:56:19;;;;;;;;;;;;;;;4.02;93.45;99974.09;1800675;78;20288;-81
2021/12/11 11:58:45;;;;;;;;;;;;;;;3.99;94.11;99972.20;1800107;78;20637;-81
2021/12/11 12:01:20;;;;;;;;;;;;;;;3.85;94.79;99982.40;1794153;79;20126;-79
2021/12/11 12:03:45;;;;;;;;;;;;;;;3.80;95.39;99970.99;1795762;79;20126;-78
2021/12/11 12:06:12;;;;;;;;;;;;;;;4.02;94.92;99983.72;1796490;79;21895;-79
2021/12/11 12:08:42;;;;;;;;;;;;;;;4.01;94.71;99983.35;1782657;78;20589;-76
2021/12/11 12:11:07;;;;;;;;;;;;;;;3.95;94.53;99990.72;1790981;78;20102;-80
2021/12/11 12:13:33;;;;;;;;;;;;;;;3.95;93.95;99998.56;1801040;78;20589;-80
2021/12/11 12:16:03;;;;;;;;;;;;;;;3.72;95.50;100004.70;1798984;78;20242;-78
2021/12/11 12:18:29;;;;;;;;;;;;;;;3.70;95.45;100006.13;1795660;78;21113;-78
2021/12/11 12:20:55;;;;;;;;;;;;;;;3.74;95.92;100000.19;1798919;78;20133;-77
2021/12/11 12:23:21;;;;;;;;;;;;;;;3.84;95.79;100006.39;1794115;78;20202;-79
2021/12/11 12:25:47;;;;;;;;;;;;;;;4.01;95.44;100006.87;1793059;78;20269;-77
2021/12/11 12:28:13;;;;;;;;;;;;;;;4.02;94.83;100002.02;1792105;78;20508;-76
2021/12/11 12:30:48;;;;;;;;;;;;;;;4.02;94.96;100001.52;1787487;78;21017;-77
2021/12/11 12:33:15;;;;;;;;;;;;;;;3.98;94.61;100014.94;1792253;78;20080;-76
2021/12/11 12:35:41;;;;;;;;;;;;;;;3.98;95.00;100017.55;1792316;78;20195;-78
2021/12/11 12:38:09;;;;;;;;;;;;;;;3.92;94.96;100015.77;1808889;77;20611;-79
2021/12/11 12:40:46;;;;;;;;;;;;;;;3.82;95.05;100016.10;1808854;77;20170;-81
2021/12/11 12:43:21;;;;;;;;;;;;;;;3.71;95.41;100000.42;1819073;77;21375;-81
2021/12/11 12:45:45;;;;;;;;;;;;;;;3.59;96.98;100025.20;1809796;77;20225;-81
2021/12/11 12:48:14;;;;;;;;;;;;;;;3.61;96.80;100031.62;1814132;77;20601;-78
2021/12/11 12:50:46;;;;;;;;;;;;;;;3.54;96.84;100026.48;1820815;77;20155;-80
2021/12/11 12:53:12;;;;;;;;;;;;;;;3.43;97.52;100025.16;1815573;77;20217;-79
2021/12/11 12:55:41;;;;;;;;;;;;;;;3.44;98.14;100023.73;1815788;77;21063;-82
2021/12/11 12:58:10;;;;;;;;;;;;;;;3.39;98.79;100027.16;1812215;77;20804;-80
2021/12/11 13:00:39;;;;;;;;;;;;;;;3.49;98.29;100026.83;1812411;77;20201;-77
2021/12/11 13:03:09;;;;;;;;;;;;;;;3.51;97.78;100031.48;1813122;77;20168;-77
2021/12/11 13:05:38;;;;;;;;;;;;;;;3.64;97.94;100037.09;1819040;77;20175;-77
2021/12/11 13:08:07;;;;;;;;;;;;;;;3.74;97.36;100036.75;1812681;77;21323;-78
2021/12/11 13:10:36;;;;;;;;;;;;;;;3.72;97.43;100043.87;1815568;77;20155;-79
2021/12/11 13:13:03;;;;;;;;;;;;;;;3.53;98.06;100047.86;1812536;78;20236;-79
2021/12/11 13:15:36;;;;;;;;;;;;;;;3.41;98.13;100047.45;1823038;77;20164;-78
2021/12/11 13:18:04;;;;;;;;;;;;;;;3.51;98.18;100048.45;1820230;77;20210;-77